Weather at Mladá Boleslav Airport

Public forecast

Using degrees Celsius for public forecast. Weather courtesy of forecast.io.

Closest aviation weather report (METAR) to Mladá Boleslav Airport

Closest report is Kbely Air Base, 21.5 nm (39.8 km) SW. Retrieved 2020/12/04 11:30 UTC (0 seconds ago):

LKKB 041130Z 12009KT 9999 SCT018 BKN020 03/M01 Q0996 NOSIG

Closest aviation forecast (TAF) to Mladá Boleslav Airport

Closest forecast is Kbely Air Base, 21.5 nm (39.8 km) SW. Retrieved 2020/12/04 06:00 UTC (5 hours ago):

TAF LKKB 040500Z 0406/0506 11006KT 9999 BKN021 BECMG 0502/0504 14012KT CAVOK TEMPO 0504/0506 12015G25KT